createdAt,value
2018-09-23T00:00:17.309Z,4.12
2018-09-23T00:02:46.463Z,4.70
2018-09-23T00:05:15.487Z,4.63
2018-09-23T00:07:44.815Z,6.58
2018-09-23T00:10:14.101Z,4.67
2018-09-23T00:12:43.460Z,3.73
2018-09-23T00:15:12.544Z,6.83
2018-09-23T00:17:41.660Z,5.63
2018-09-23T00:20:10.819Z,4.83
2018-09-23T00:22:39.617Z,5.20
2018-09-23T00:25:08.521Z,7.43
2018-09-23T00:27:37.354Z,5.20
2018-09-23T00:30:06.451Z,4.03
2018-09-23T00:32:35.624Z,4.13
2018-09-23T00:35:04.941Z,5.70
2018-09-23T00:37:34.163Z,6.00
2018-09-23T00:40:03.525Z,9.20
2018-09-23T00:42:32.729Z,5.63
2018-09-23T00:45:02.054Z,5.47
2018-09-23T00:47:31.370Z,5.23
2018-09-23T00:50:00.478Z,7.97
2018-09-23T00:52:29.615Z,6.83
2018-09-23T00:54:58.927Z,5.30
2018-09-23T00:57:28.383Z,5.30
2018-09-23T00:59:57.724Z,10.83
2018-09-23T01:02:26.982Z,5.80
2018-09-23T01:04:56.352Z,8.97
2018-09-23T01:07:25.684Z,7.20
2018-09-23T01:09:54.947Z,7.50
2018-09-23T01:12:24.239Z,10.03
2018-09-23T01:14:53.719Z,7.60
2018-09-23T01:17:22.856Z,6.40
2018-09-23T01:19:52.237Z,5.93
2018-09-23T01:22:21.557Z,7.77
2018-09-23T01:24:50.782Z,7.03
2018-09-23T01:27:19.922Z,8.33
2018-09-23T01:29:49.265Z,8.13
2018-09-23T01:32:18.582Z,8.00
2018-09-23T01:34:47.841Z,5.37
2018-09-23T01:37:16.944Z,6.47
2018-09-23T01:39:46.071Z,6.37
2018-09-23T01:42:15.270Z,8.88
2018-09-23T01:44:44.560Z,10.30
2018-09-23T01:47:13.780Z,7.70
2018-09-23T01:49:42.957Z,7.60
2018-09-23T01:52:12.676Z,6.77
2018-09-23T01:54:42.213Z,6.57
2018-09-23T01:57:11.493Z,7.20
2018-09-23T01:59:40.698Z,7.83
2018-09-23T02:02:09.794Z,8.67
2018-09-23T02:04:39.022Z,10.00
2018-09-23T02:07:08.137Z,10.30
2018-09-23T02:09:37.426Z,7.00
2018-09-23T02:12:06.680Z,8.90
2018-09-23T02:14:35.960Z,8.67
2018-09-23T02:17:05.146Z,7.80
2018-09-23T02:19:34.571Z,8.70
2018-09-23T02:22:03.783Z,8.30
2018-09-23T02:24:33.011Z,8.17
2018-09-23T02:27:02.330Z,9.23
2018-09-23T02:29:31.592Z,10.40
2018-09-23T02:32:00.734Z,8.47
2018-09-23T02:34:29.999Z,14.00
2018-09-23T02:36:59.149Z,8.63
2018-09-23T02:39:28.361Z,8.90
2018-09-23T02:41:57.661Z,8.43
2018-09-23T02:44:26.669Z,8.47
2018-09-23T02:46:55.762Z,18.63
2018-09-23T02:49:24.945Z,9.90
2018-09-23T02:51:54.958Z,11.73
2018-09-23T02:54:24.430Z,8.27
2018-09-23T02:56:54.225Z,8.03
2018-09-23T02:59:23.520Z,10.13
2018-09-23T03:01:52.891Z,9.23
2018-09-23T03:04:22.082Z,9.03
2018-09-23T03:06:51.313Z,11.87
2018-09-23T03:09:20.457Z,9.97
2018-09-23T03:11:49.666Z,15.67
2018-09-23T03:14:18.907Z,11.37
2018-09-23T03:16:48.295Z,14.17
2018-09-23T03:19:17.505Z,9.20
2018-09-23T03:21:46.954Z,11.13
2018-09-23T03:24:16.187Z,18.57
2018-09-23T03:26:45.598Z,15.23
2018-09-23T03:29:14.864Z,15.67
2018-09-23T03:31:44.215Z,12.07
2018-09-23T03:34:13.545Z,18.27
2018-09-23T03:36:42.815Z,14.83
2018-09-23T03:39:12.076Z,22.95
2018-09-23T03:41:41.147Z,13.40
2018-09-23T03:44:10.746Z,14.17
2018-09-23T03:46:40.202Z,12.07
2018-09-23T03:49:09.559Z,15.03
2018-09-23T03:51:38.863Z,12.77
2018-09-23T03:54:11.389Z,11.27
2018-09-23T03:56:41.339Z,10.13
2018-09-23T03:59:10.910Z,10.85
2018-09-23T04:01:40.261Z,11.20
2018-09-23T04:04:10.229Z,12.33
2018-09-23T04:06:39.388Z,12.63
2018-09-23T04:09:09.030Z,21.63
2018-09-23T04:11:38.183Z,19.23
2018-09-23T04:14:07.397Z,11.43
2018-09-23T04:16:36.570Z,11.97
2018-09-23T04:19:05.696Z,14.85
2018-09-23T04:21:34.923Z,13.83
2018-09-23T04:24:04.949Z,10.97
2018-09-23T04:26:34.159Z,18.00
2018-09-23T04:29:03.277Z,12.27
2018-09-23T04:31:32.603Z,18.87
2018-09-23T04:34:01.803Z,12.10
2018-09-23T04:36:31.033Z,13.77
2018-09-23T04:39:00.333Z,11.00
2018-09-23T04:41:29.627Z,14.43
2018-09-23T04:43:58.936Z,12.67
2018-09-23T04:46:28.201Z,15.67
2018-09-23T04:48:57.421Z,14.67
2018-09-23T04:51:26.645Z,13.60
2018-09-23T04:53:55.802Z,14.13
2018-09-23T04:56:24.982Z,14.07
2018-09-23T04:58:54.069Z,12.37
2018-09-23T05:01:23.362Z,12.13
2018-09-23T05:03:52.621Z,14.30
2018-09-23T05:06:21.972Z,15.13
2018-09-23T05:08:51.275Z,14.70
2018-09-23T05:11:20.713Z,16.40
2018-09-23T05:13:50.182Z,14.10
2018-09-23T05:16:19.962Z,13.17
2018-09-23T05:18:49.304Z,13.00
2018-09-23T05:21:18.696Z,12.43
2018-09-23T05:23:47.949Z,12.30
2018-09-23T05:26:17.153Z,12.27
2018-09-23T05:28:46.490Z,16.53
2018-09-23T05:31:15.605Z,11.20
2018-09-23T05:33:44.904Z,24.93
2018-09-23T05:36:14.128Z,18.63
2018-09-23T05:38:43.348Z,10.50
2018-09-23T05:41:12.564Z,12.13
2018-09-23T05:43:42.087Z,12.60
2018-09-23T05:46:11.557Z,13.70
2018-09-23T05:48:40.919Z,14.80
2018-09-23T05:51:10.566Z,11.77
2018-09-23T05:53:40.116Z,11.30
2018-09-23T05:56:09.275Z,11.80
2018-09-23T05:58:38.624Z,16.63
2018-09-23T06:01:07.972Z,13.03
2018-09-23T06:03:37.707Z,18.80
2018-09-23T06:06:07.202Z,12.30
2018-09-23T06:08:37.202Z,14.60
2018-09-23T06:11:06.712Z,13.50
2018-09-23T06:13:36.067Z,11.70
2018-09-23T06:16:05.308Z,11.67
2018-09-23T06:18:35.097Z,16.67
2018-09-23T06:21:05.064Z,12.83
2018-09-23T06:23:34.805Z,13.53
2018-09-23T06:26:06.006Z,12.90
2018-09-23T06:28:35.470Z,18.13
2018-09-23T06:31:05.511Z,12.17
2018-09-23T06:33:34.785Z,14.93
2018-09-23T06:36:04.851Z,13.08
2018-09-23T06:38:34.104Z,11.93
2018-09-23T06:41:03.499Z,16.10
2018-09-23T06:43:32.701Z,13.07
2018-09-23T06:46:03.183Z,12.03
2018-09-23T06:48:33.036Z,17.53
2018-09-23T06:51:01.810Z,13.93
2018-09-23T06:53:30.595Z,17.30
2018-09-23T06:55:59.324Z,14.27
2018-09-23T06:58:28.569Z,12.03
2018-09-23T07:00:57.814Z,12.13
2018-09-23T07:03:27.151Z,11.30
2018-09-23T07:05:56.580Z,12.63
2018-09-23T07:08:25.751Z,11.93
2018-09-23T07:10:55.061Z,20.10
2018-09-23T07:13:24.500Z,12.03
2018-09-23T07:15:54.136Z,13.50
2018-09-23T07:18:23.507Z,19.40
2018-09-23T07:20:52.860Z,15.03
2018-09-23T07:23:22.196Z,19.10
2018-09-23T07:25:51.631Z,12.03
2018-09-23T07:28:21.003Z,14.83
2018-09-23T07:30:50.631Z,15.35
2018-09-23T07:33:20.155Z,13.80
2018-09-23T07:35:50.315Z,14.77
2018-09-23T07:38:18.971Z,13.30
2018-09-23T07:40:47.623Z,15.83
2018-09-23T07:43:16.443Z,16.77
2018-09-23T07:45:45.256Z,27.97
2018-09-23T07:48:14.488Z,18.77
2018-09-23T07:50:43.653Z,13.30
2018-09-23T07:53:12.535Z,14.07
2018-09-23T07:55:41.686Z,19.13
2018-09-23T07:58:10.957Z,26.67
2018-09-23T08:00:40.156Z,20.93
2018-09-23T08:03:10.062Z,17.03
2018-09-23T08:05:39.342Z,28.90
2018-09-23T08:08:08.592Z,18.37
2018-09-23T08:10:38.018Z,19.40
2018-09-23T08:13:07.668Z,25.53
2018-09-23T08:15:38.163Z,28.97
2018-09-23T08:18:07.794Z,24.13
2018-09-23T08:20:37.275Z,17.30
2018-09-23T08:23:06.898Z,20.33
2018-09-23T08:25:35.829Z,25.63
2018-09-23T08:28:04.806Z,32.43
2018-09-23T08:30:33.506Z,28.07
2018-09-23T08:33:02.276Z,27.10
2018-09-23T08:35:31.209Z,18.43
2018-09-23T08:38:00.062Z,26.50
2018-09-23T08:40:28.866Z,28.50
2018-09-23T08:43:00.988Z,27.87
2018-09-23T08:45:30.026Z,17.73
2018-09-23T08:47:58.973Z,19.70
2018-09-23T08:50:27.849Z,23.87
2018-09-23T08:52:56.989Z,21.63
2018-09-23T08:55:25.793Z,18.50
2018-09-23T08:57:54.879Z,19.37
2018-09-23T09:00:24.373Z,22.37
2018-09-23T09:02:53.926Z,18.97
2018-09-23T09:05:22.835Z,17.87
2018-09-23T09:07:52.601Z,17.40
2018-09-23T09:10:21.505Z,17.70
2018-09-23T09:12:50.477Z,21.40
2018-09-23T09:15:19.260Z,16.53
2018-09-23T09:17:47.995Z,18.73
2018-09-23T09:20:16.879Z,19.80
2018-09-23T09:22:45.726Z,19.10
2018-09-23T09:25:14.921Z,17.53
2018-09-23T09:27:43.954Z,20.10
2018-09-23T09:30:12.883Z,21.93
2018-09-23T09:32:41.755Z,18.10
2018-09-23T09:35:11.011Z,20.90
2018-09-23T09:37:40.405Z,22.90
2018-09-23T09:40:10.180Z,20.37
2018-09-23T09:42:39.794Z,18.33
2018-09-23T09:45:09.792Z,17.70
2018-09-23T09:47:39.640Z,18.23
2018-09-23T09:50:08.960Z,18.17
2018-09-23T09:52:38.417Z,18.57
2018-09-23T09:55:08.171Z,16.27
2018-09-23T09:57:37.370Z,17.97
2018-09-23T10:00:07.242Z,17.57
2018-09-23T10:02:36.461Z,19.23
2018-09-23T10:05:08.196Z,19.17
2018-09-23T10:07:37.147Z,16.20
2018-09-23T10:10:05.942Z,15.80
2018-09-23T10:12:34.735Z,20.60
2018-09-23T10:15:04.450Z,15.30
2018-09-23T10:17:33.326Z,16.12
2018-09-23T10:20:02.464Z,18.00
2018-09-23T10:22:31.811Z,18.57
2018-09-23T10:25:00.720Z,17.33
2018-09-23T10:27:29.714Z,16.67
2018-09-23T10:29:58.531Z,17.77
2018-09-23T10:32:27.701Z,19.13
2018-09-23T10:34:56.959Z,18.93
2018-09-23T10:37:26.339Z,14.00
2018-09-23T10:39:55.746Z,15.50
2018-09-23T10:42:25.518Z,16.37
2018-09-23T10:44:54.192Z,15.80
2018-09-23T10:47:22.979Z,21.20
2018-09-23T10:49:51.772Z,15.20
2018-09-23T10:52:20.456Z,15.83
2018-09-23T10:54:49.249Z,15.00
2018-09-23T10:57:18.421Z,15.10
2018-09-23T10:59:47.461Z,15.23
2018-09-23T11:02:16.696Z,16.03
2018-09-23T11:04:45.844Z,16.10
2018-09-23T11:07:15.519Z,15.50
2018-09-23T11:09:44.568Z,16.07
2018-09-23T11:12:15.103Z,15.23
2018-09-23T11:14:45.503Z,16.73
2018-09-23T11:17:15.958Z,13.60
2018-09-23T11:19:45.785Z,15.60
2018-09-23T11:22:14.950Z,17.03
2018-09-23T11:24:45.029Z,13.17
2018-09-23T11:27:14.680Z,15.43
2018-09-23T11:29:43.633Z,15.20
2018-09-23T11:32:12.463Z,13.63
2018-09-23T11:34:41.138Z,12.30
2018-09-23T11:37:10.326Z,10.87
2018-09-23T11:39:39.146Z,14.60
2018-09-23T11:42:08.442Z,10.50
2018-09-23T11:44:39.181Z,13.17
2018-09-23T11:47:08.455Z,10.50
2018-09-23T11:49:39.618Z,12.57
2018-09-23T11:52:08.757Z,10.33
2018-09-23T11:54:37.653Z,12.40
2018-09-23T11:57:06.673Z,9.63
2018-09-23T11:59:35.572Z,8.50
2018-09-23T12:02:05.201Z,14.50
2018-09-23T12:04:33.947Z,11.43
2018-09-23T12:07:02.660Z,11.47
2018-09-23T12:09:31.385Z,8.63
2018-09-23T12:12:00.920Z,7.30
2018-09-23T12:14:29.848Z,7.80
2018-09-23T12:17:00.087Z,23.07
2018-09-23T12:19:28.891Z,11.50
2018-09-23T12:21:57.847Z,9.53
2018-09-23T12:24:28.305Z,7.03
2018-09-23T12:26:57.209Z,8.23
2018-09-23T12:29:25.967Z,8.27
2018-09-23T12:31:55.094Z,8.83
2018-09-23T12:34:24.239Z,8.07
2018-09-23T12:36:53.193Z,6.87
2018-09-23T12:39:22.419Z,8.10
2018-09-23T12:41:51.182Z,6.87
2018-09-23T12:44:20.071Z,9.00
2018-09-23T12:46:49.159Z,7.87
2018-09-23T12:49:17.988Z,8.13
2018-09-23T12:51:46.919Z,6.27
2018-09-23T12:54:15.788Z,4.70
2018-09-23T12:56:44.563Z,5.00
2018-09-23T12:59:14.093Z,7.97
2018-09-23T13:01:43.336Z,6.03
2018-09-23T13:04:12.116Z,5.90
2018-09-23T13:06:41.345Z,5.87
2018-09-23T13:09:10.227Z,4.77
2018-09-23T13:11:39.127Z,4.67
2018-09-23T13:14:08.438Z,6.03
2018-09-23T13:16:37.673Z,6.70
2018-09-23T13:19:06.525Z,3.53
2018-09-23T13:21:35.315Z,3.10
2018-09-23T13:24:04.676Z,2.90
2018-09-23T13:26:33.480Z,4.93
2018-09-23T13:29:02.245Z,2.63
2018-09-23T13:31:30.937Z,5.23
2018-09-23T13:33:59.656Z,3.83
2018-09-23T13:36:28.421Z,2.30
2018-09-23T13:38:57.129Z,4.67
2018-09-23T13:41:27.035Z,3.00
2018-09-23T13:43:55.891Z,4.70
2018-09-23T13:46:24.854Z,3.73
2018-09-23T13:48:53.880Z,3.13
2018-09-23T13:51:22.504Z,3.23
2018-09-23T13:53:51.367Z,3.67
2018-09-23T13:56:20.265Z,3.03
2018-09-23T13:58:49.175Z,2.93
2018-09-23T14:01:17.963Z,2.57
2018-09-23T14:03:46.705Z,2.63
2018-09-23T14:06:16.193Z,3.70
2018-09-23T14:08:44.856Z,2.97
2018-09-23T14:11:13.987Z,3.23
2018-09-23T14:13:42.628Z,3.00
2018-09-23T14:16:11.819Z,6.63
2018-09-23T14:18:40.489Z,2.07
2018-09-23T14:21:09.298Z,3.13
2018-09-23T14:23:38.073Z,2.47
2018-09-23T14:26:06.864Z,3.03
2018-09-23T14:28:35.588Z,4.10
2018-09-23T14:31:04.661Z,3.12
2018-09-23T14:33:33.397Z,3.73
2018-09-23T14:36:02.343Z,2.10
2018-09-23T14:38:31.021Z,2.27
2018-09-23T14:40:59.708Z,1.60
2018-09-23T14:43:28.393Z,3.03
2018-09-23T14:45:57.173Z,3.33
2018-09-23T14:48:25.900Z,3.50
2018-09-23T14:50:54.676Z,2.10
2018-09-23T14:53:23.428Z,2.30
2018-09-23T14:55:52.196Z,2.07
2018-09-23T14:58:20.950Z,2.03
2018-09-23T15:00:49.965Z,2.93
2018-09-23T15:03:19.738Z,2.80
2018-09-23T15:05:48.948Z,2.67
2018-09-23T15:08:17.831Z,1.90
2018-09-23T15:10:46.908Z,3.70
2018-09-23T15:13:15.734Z,4.33
2018-09-23T15:15:44.476Z,3.10
2018-09-23T15:18:13.418Z,3.05
2018-09-23T15:20:42.327Z,3.37
2018-09-23T15:23:11.011Z,2.03
2018-09-23T15:25:39.980Z,2.63
2018-09-23T15:28:08.664Z,2.13
2018-09-23T15:30:37.588Z,1.60
2018-09-23T15:33:06.731Z,3.87
2018-09-23T15:35:35.682Z,2.03
2018-09-23T15:38:04.372Z,1.27
2018-09-23T15:40:33.115Z,1.70
2018-09-23T15:43:01.854Z,2.90
2018-09-23T15:45:30.568Z,0.70
2018-09-23T15:47:59.433Z,1.93
2018-09-23T15:50:28.383Z,2.13
2018-09-23T15:52:57.091Z,2.70
2018-09-23T15:55:25.939Z,2.50
2018-09-23T15:57:54.779Z,1.93
2018-09-23T16:00:23.387Z,3.03
2018-09-23T16:02:52.039Z,1.23
2018-09-23T16:05:20.772Z,1.53
2018-09-23T16:07:49.528Z,2.87
2018-09-23T16:10:18.132Z,1.83
2018-09-23T16:12:46.899Z,2.07
2018-09-23T16:15:15.718Z,2.13
2018-09-23T16:17:44.525Z,2.40
2018-09-23T16:20:13.229Z,1.90
2018-09-23T16:22:42.115Z,2.03
2018-09-23T16:25:11.080Z,1.33
2018-09-23T16:27:39.754Z,2.47
2018-09-23T16:30:08.537Z,2.17
2018-09-23T16:32:37.390Z,1.33
2018-09-23T16:35:06.802Z,1.37
2018-09-23T16:37:35.567Z,0.60
2018-09-23T16:40:04.288Z,4.30
2018-09-23T16:42:33.229Z,0.80
2018-09-23T16:45:04.081Z,0.80
2018-09-23T16:47:33.005Z,1.43
2018-09-23T16:50:01.701Z,1.53
2018-09-23T16:52:30.600Z,1.50
2018-09-23T16:54:59.361Z,3.20
2018-09-23T16:57:28.132Z,3.03
2018-09-23T16:59:56.797Z,3.67
2018-09-23T17:02:25.458Z,3.27
2018-09-23T17:04:54.292Z,1.37
2018-09-23T17:07:23.070Z,1.20
2018-09-23T17:09:51.723Z,2.40
2018-09-23T17:12:20.474Z,2.73
2018-09-23T17:14:49.161Z,2.03
2018-09-23T17:17:17.869Z,3.03
2018-09-23T17:19:46.694Z,1.60
2018-09-23T17:22:15.403Z,1.20
2018-09-23T17:24:44.200Z,1.10
2018-09-23T17:27:12.999Z,1.93
2018-09-23T17:29:41.748Z,3.07
2018-09-23T17:32:10.639Z,1.00
2018-09-23T17:34:39.329Z,1.83
2018-09-23T17:37:08.362Z,2.40
2018-09-23T17:39:37.063Z,2.93
2018-09-23T17:42:06.046Z,1.60
2018-09-23T17:44:35.001Z,1.63
2018-09-23T17:47:05.490Z,2.00
2018-09-23T17:49:34.439Z,1.57
2018-09-23T17:52:03.387Z,1.40
2018-09-23T17:54:32.069Z,4.87
2018-09-23T17:57:00.759Z,2.57
2018-09-23T17:59:29.460Z,2.50
2018-09-23T18:01:58.194Z,2.77
2018-09-23T18:04:26.961Z,2.60
2018-09-23T18:06:55.744Z,1.60
2018-09-23T18:09:24.441Z,0.90
2018-09-23T18:11:53.144Z,1.00
2018-09-23T18:14:22.081Z,2.47
2018-09-23T18:16:50.772Z,0.97
2018-09-23T18:19:20.098Z,1.20
2018-09-23T18:21:48.942Z,4.17
2018-09-23T18:24:17.667Z,1.20
2018-09-23T18:26:46.975Z,2.23
2018-09-23T18:29:15.663Z,2.10
2018-09-23T18:31:44.498Z,2.77
2018-09-23T18:34:13.233Z,2.70
2018-09-23T18:36:41.994Z,1.60
2018-09-23T18:39:10.899Z,1.77
2018-09-23T18:41:39.769Z,1.30
2018-09-23T18:44:08.536Z,3.80
2018-09-23T18:46:37.281Z,2.57
2018-09-23T18:49:05.972Z,1.83
2018-09-23T18:51:34.770Z,1.50
2018-09-23T18:54:09.615Z,1.23
2018-09-23T18:56:38.503Z,2.77
2018-09-23T18:59:07.274Z,1.37
2018-09-23T19:01:36.107Z,3.03
2018-09-23T19:04:04.823Z,3.43
2018-09-23T19:06:33.563Z,3.60
2018-09-23T19:09:03.720Z,2.47
2018-09-23T19:11:32.448Z,5.57
2018-09-23T19:14:01.672Z,3.57
2018-09-23T19:16:31.788Z,2.20
2018-09-23T19:19:00.517Z,1.53
2018-09-23T19:21:29.736Z,2.30
2018-09-23T19:23:58.911Z,3.93
2018-09-23T19:26:28.105Z,5.77
2018-09-23T19:28:56.836Z,2.07
2018-09-23T19:31:25.612Z,2.33
2018-09-23T19:33:54.288Z,1.90
2018-09-23T19:36:23.124Z,2.60
2018-09-23T19:38:51.858Z,2.23
2018-09-23T19:41:20.553Z,1.32
2018-09-23T19:43:49.361Z,1.10
2018-09-23T19:46:18.108Z,2.87
2018-09-23T19:48:46.832Z,2.23
2018-09-23T19:51:15.509Z,3.80
2018-09-23T19:53:44.285Z,1.87
2018-09-23T19:56:13.467Z,3.73
2018-09-23T19:58:42.172Z,1.63
2018-09-23T20:01:11.266Z,2.47
2018-09-23T20:03:40.044Z,1.63
2018-09-23T20:06:08.863Z,1.57
2018-09-23T20:08:37.657Z,2.50
2018-09-23T20:11:06.792Z,2.90
2018-09-23T20:13:35.549Z,2.37
2018-09-23T20:16:04.677Z,1.50
2018-09-23T20:18:33.341Z,1.30
2018-09-23T20:21:02.192Z,1.80
2018-09-23T20:23:31.573Z,3.50
2018-09-23T20:26:00.329Z,3.13
2018-09-23T20:28:29.120Z,3.70
2018-09-23T20:30:57.908Z,3.13
2018-09-23T20:33:27.651Z,4.37
2018-09-23T20:35:56.980Z,1.60
2018-09-23T20:38:25.713Z,1.70
2018-09-23T20:40:54.434Z,2.43
2018-09-23T20:43:23.233Z,1.63
2018-09-23T20:45:52.072Z,3.07
2018-09-23T20:48:20.795Z,2.67
2018-09-23T20:50:49.556Z,0.87
2018-09-23T20:53:18.298Z,1.63
2018-09-23T20:55:47.260Z,3.80
2018-09-23T20:58:15.947Z,1.57
2018-09-23T21:00:45.139Z,3.37
2018-09-23T21:03:14.189Z,3.67
2018-09-23T21:05:44.310Z,4.97
2018-09-23T21:08:12.975Z,3.60
2018-09-23T21:10:41.727Z,2.63
2018-09-23T21:13:10.500Z,3.17
2018-09-23T21:15:39.220Z,4.20
2018-09-23T21:18:07.915Z,1.20
2018-09-23T21:20:36.567Z,2.53
2018-09-23T21:23:05.639Z,4.97
2018-09-23T21:25:34.469Z,3.83
2018-09-23T21:28:04.180Z,4.67
2018-09-23T21:30:32.883Z,1.83
2018-09-23T21:33:01.656Z,3.33
2018-09-23T21:35:30.436Z,2.30
2018-09-23T21:37:59.147Z,1.20
2018-09-23T21:40:27.905Z,3.97
2018-09-23T21:42:56.633Z,3.33
2018-09-23T21:45:25.466Z,4.23
2018-09-23T21:47:54.211Z,0.80
2018-09-23T21:50:22.962Z,5.90
2018-09-23T21:52:51.623Z,1.73
2018-09-23T21:55:20.565Z,4.63
2018-09-23T21:57:49.320Z,4.07
2018-09-23T22:00:18.180Z,2.40
2018-09-23T22:02:47.085Z,3.93
2018-09-23T22:05:15.804Z,3.40
2018-09-23T22:07:45.658Z,6.87
2018-09-23T22:10:14.342Z,3.27
2018-09-23T22:12:43.068Z,4.37
2018-09-23T22:15:16.125Z,1.60
2018-09-23T22:17:45.974Z,2.47
2018-09-23T22:20:14.803Z,3.93
2018-09-23T22:22:43.408Z,5.33
2018-09-23T22:25:12.240Z,5.60
2018-09-23T22:27:41.050Z,3.10
2018-09-23T22:30:09.772Z,6.55
2018-09-23T22:32:38.626Z,3.23
2018-09-23T22:35:07.417Z,2.70
2018-09-23T22:37:36.588Z,2.43
2018-09-23T22:40:06.240Z,2.87
2018-09-23T22:42:35.974Z,2.10
2018-09-23T22:45:05.084Z,2.75
2018-09-23T22:47:33.878Z,2.20
2018-09-23T22:50:03.177Z,3.10
2018-09-23T22:52:31.994Z,1.80
2018-09-23T22:55:00.748Z,2.37
2018-09-23T22:57:29.557Z,4.07
2018-09-23T22:59:58.263Z,2.03
2018-09-23T23:02:27.044Z,2.70
2018-09-23T23:04:55.781Z,6.83
2018-09-23T23:07:24.493Z,2.93
2018-09-23T23:09:53.437Z,2.97
2018-09-23T23:12:22.174Z,3.57
2018-09-23T23:14:50.924Z,4.57
2018-09-23T23:17:19.655Z,3.30
2018-09-23T23:19:48.424Z,4.47
2018-09-23T23:22:17.409Z,1.77
2018-09-23T23:27:59.737Z,4.00
2018-09-23T23:30:28.553Z,1.53
2018-09-23T23:32:57.315Z,2.53
2018-09-23T23:35:26.137Z,2.00
2018-09-23T23:37:55.463Z,2.87
2018-09-23T23:40:24.170Z,2.10
2018-09-23T23:42:52.964Z,3.77
2018-09-23T23:45:21.736Z,3.47
2018-09-23T23:47:50.551Z,1.43
2018-09-23T23:50:19.413Z,6.30
2018-09-23T23:52:48.098Z,4.07
2018-09-23T23:55:16.763Z,3.00
2018-09-23T23:57:45.898Z,3.10
